Time;durP1;ratioP1;P1;durP2;ratioP2;P2;SDS_P1;SDS_P2;PMS_P1;PMS_P2;Temp;Humidity;BMP_temperature;BMP_pressure;BME280_temperature;BME280_humidity;BME280_pressure;Samples;Min_cycle;Max_cycle;Signal;HPM_P1;HPM_P2
2023/05/17 00:00:31;;;;;;;7.60;3.27;;;;;;;;;;4990251;28;21719;-69
2023/05/17 00:02:56;;;;;;;8.07;3.50;;;;;;;;;;5000180;28;20222;-70
2023/05/17 00:05:21;;;;;;;8.07;3.53;;;;;;;;;;4993413;28;20187;-69
2023/05/17 00:07:47;;;;;;;10.50;4.20;;;;;;;;;;4993267;28;20238;-69
2023/05/17 00:10:12;;;;;;;8.10;3.60;;;;;;;;;;4992477;28;20203;-69
2023/05/17 00:12:37;;;;;;;10.23;3.70;;;;;;;;;;4995010;28;20199;-70
2023/05/17 00:15:03;;;;;;;11.77;3.17;;;;;;;;;;5001171;28;20271;-70
2023/05/17 00:17:28;;;;;;;9.27;3.43;;;;;;;;;;4993171;28;20565;-69
2023/05/17 00:19:53;;;;;;;5.40;3.13;;;;;;;;;;4993379;28;20532;-69
2023/05/17 00:22:18;;;;;;;8.87;3.23;;;;;;;;;;4995809;28;20176;-69
2023/05/17 00:24:44;;;;;;;6.00;4.80;;;;;;;;;;4994745;28;20191;-69
2023/05/17 00:27:09;;;;;;;10.10;3.97;;;;;;;;;;4992421;28;20286;-69
2023/05/17 00:29:34;;;;;;;10.93;3.33;;;;;;;;;;4984706;28;20238;-69
2023/05/17 00:31:59;;;;;;;8.00;3.33;;;;;;;;;;4984409;28;20176;-69
2023/05/17 00:34:24;;;;;;;13.80;4.50;;;;;;;;;;4984861;28;20610;-69
2023/05/17 00:36:50;;;;;;;13.13;3.43;;;;;;;;;;4977062;28;20684;-69
2023/05/17 00:39:15;;;;;;;17.93;4.20;;;;;;;;;;4983961;28;20666;-69
2023/05/17 00:41:40;;;;;;;8.80;3.70;;;;;;;;;;4982281;28;20183;-69
2023/05/17 00:44:06;;;;;;;11.57;4.37;;;;;;;;;;4985001;28;20298;-69
2023/05/17 00:46:32;;;;;;;10.50;3.50;;;;;;;;;;4983498;28;20188;-69
2023/05/17 00:48:57;;;;;;;10.87;4.23;;;;;;;;;;4984491;28;20658;-69
2023/05/17 00:51:23;;;;;;;13.57;4.77;;;;;;;;;;4981666;28;20282;-69
2023/05/17 00:53:48;;;;;;;10.50;5.30;;;;;;;;;;4977561;28;20237;-69
2023/05/17 00:56:13;;;;;;;9.73;4.10;;;;;;;;;;4990597;28;20188;-69
2023/05/17 00:58:40;;;;;;;15.53;3.77;;;;;;;;;;4979271;28;20191;-69
2023/05/17 01:01:06;;;;;;;7.87;3.90;;;;;;;;;;4985234;28;20187;-69
2023/05/17 01:03:31;;;;;;;13.77;4.17;;;;;;;;;;4981061;28;20595;-69
2023/05/17 01:05:56;;;;;;;10.20;4.53;;;;;;;;;;4984757;28;20191;-68
2023/05/17 01:08:21;;;;;;;20.30;5.60;;;;;;;;;;4982055;28;20222;-69
2023/05/17 01:10:56;;;;;;;14.83;4.17;;;;;;;;;;4975792;28;20187;-69
2023/05/17 01:13:24;;;;;;;10.60;4.37;;;;;;;;;;4983013;28;20210;-68
2023/05/17 01:15:55;;;;;;;21.20;3.77;;;;;;;;;;4984887;28;20179;-69
2023/05/17 01:18:27;;;;;;;10.23;4.20;;;;;;;;;;4982710;28;20211;-68
2023/05/17 01:20:54;;;;;;;14.30;4.87;;;;;;;;;;4991715;28;20184;-68
2023/05/17 01:23:38;;;;;;;11.40;4.23;;;;;;;;;;4982263;28;20330;-68
2023/05/17 01:26:06;;;;;;;9.13;4.40;;;;;;;;;;4986103;28;20183;-68
2023/05/17 01:28:32;;;;;;;11.13;4.27;;;;;;;;;;4984164;28;20620;-68
2023/05/17 01:30:58;;;;;;;8.57;4.10;;;;;;;;;;4985908;28;20680;-68
2023/05/17 01:33:24;;;;;;;15.07;4.83;;;;;;;;;;4986937;28;20658;-69
2023/05/17 01:35:49;;;;;;;17.53;5.67;;;;;;;;;;4989619;28;20179;-69
2023/05/17 01:38:14;;;;;;;13.37;4.33;;;;;;;;;;4990101;28;20175;-69
2023/05/17 01:40:42;;;;;;;11.57;4.13;;;;;;;;;;4980388;28;20267;-70
2023/05/17 01:43:11;;;;;;;11.50;4.23;;;;;;;;;;4986074;28;20572;-69
2023/05/17 01:45:50;;;;;;;13.50;5.53;;;;;;;;;;4983493;28;20192;-68
2023/05/17 01:48:18;;;;;;;10.87;4.60;;;;;;;;;;4985634;28;20290;-68
2023/05/17 01:50:46;;;;;;;11.33;4.60;;;;;;;;;;4983968;28;20549;-69
2023/05/17 01:53:17;;;;;;;11.70;5.10;;;;;;;;;;4985722;28;20291;-69
2023/05/17 01:55:50;;;;;;;12.07;4.30;;;;;;;;;;4985575;28;20183;-69
2023/05/17 01:58:17;;;;;;;7.40;3.90;;;;;;;;;;4985441;28;20667;-69
2023/05/17 02:00:43;;;;;;;14.77;4.70;;;;;;;;;;4984809;28;20198;-69
2023/05/17 02:03:15;;;;;;;13.60;5.00;;;;;;;;;;4982792;28;20195;-69
2023/05/17 02:05:40;;;;;;;11.73;4.53;;;;;;;;;;4981476;28;20188;-68
2023/05/17 02:08:06;;;;;;;9.27;4.27;;;;;;;;;;4981132;28;20221;-69
2023/05/17 02:10:31;;;;;;;10.77;4.30;;;;;;;;;;4979934;28;20213;-69
2023/05/17 02:12:56;;;;;;;16.30;5.07;;;;;;;;;;4980327;28;21231;-68
2023/05/17 02:15:21;;;;;;;13.73;4.43;;;;;;;;;;4978833;28;20267;-69
2023/05/17 02:17:46;;;;;;;12.23;4.83;;;;;;;;;;4995964;28;20186;-69
2023/05/17 02:20:12;;;;;;;11.47;4.70;;;;;;;;;;4987109;28;20716;-69
2023/05/17 02:22:37;;;;;;;13.90;5.47;;;;;;;;;;4982685;28;20265;-69
2023/05/17 02:25:03;;;;;;;10.27;4.27;;;;;;;;;;4986150;28;20674;-69
2023/05/17 02:27:28;;;;;;;14.23;6.03;;;;;;;;;;4982257;28;20302;-69
2023/05/17 02:29:53;;;;;;;11.37;4.50;;;;;;;;;;4986527;28;20266;-69
2023/05/17 02:32:18;;;;;;;7.13;4.57;;;;;;;;;;4989831;28;20262;-69
2023/05/17 02:34:43;;;;;;;9.77;4.80;;;;;;;;;;4986580;28;20204;-69
2023/05/17 02:37:09;;;;;;;10.33;4.27;;;;;;;;;;4985908;28;20266;-69
2023/05/17 02:39:34;;;;;;;11.90;4.80;;;;;;;;;;4978411;28;20175;-70
2023/05/17 02:41:59;;;;;;;10.73;5.23;;;;;;;;;;4981776;28;20194;-69
2023/05/17 02:44:24;;;;;;;9.60;4.53;;;;;;;;;;4982688;28;20203;-69
2023/05/17 02:46:49;;;;;;;10.43;4.33;;;;;;;;;;4985090;28;20180;-69
2023/05/17 02:49:15;;;;;;;15.33;4.53;;;;;;;;;;4982401;28;20594;-69
2023/05/17 02:51:40;;;;;;;13.27;5.50;;;;;;;;;;4986788;28;20183;-69
2023/05/17 02:54:05;;;;;;;10.40;4.70;;;;;;;;;;4989459;28;20321;-69
2023/05/17 02:56:30;;;;;;;8.43;4.00;;;;;;;;;;4988741;28;20729;-69
2023/05/17 02:58:56;;;;;;;11.07;5.47;;;;;;;;;;4990620;28;20179;-69
2023/05/17 03:01:21;;;;;;;7.87;3.60;;;;;;;;;;4991338;28;20263;-69
2023/05/17 03:03:47;;;;;;;11.07;4.00;;;;;;;;;;4989032;28;20222;-69
2023/05/17 03:06:12;;;;;;;8.83;4.90;;;;;;;;;;4987907;28;20198;-69
2023/05/17 03:08:38;;;;;;;16.40;4.83;;;;;;;;;;4988968;28;20215;-69
2023/05/17 03:11:03;;;;;;;14.17;4.67;;;;;;;;;;4989616;28;20649;-69
2023/05/17 03:13:28;;;;;;;11.03;4.50;;;;;;;;;;4988657;28;20241;-69
2023/05/17 03:15:53;;;;;;;12.27;4.30;;;;;;;;;;4990512;28;20176;-69
2023/05/17 03:18:19;;;;;;;8.77;4.53;;;;;;;;;;4986728;28;20407;-69
2023/05/17 03:20:44;;;;;;;10.57;4.73;;;;;;;;;;4988972;28;20281;-69
2023/05/17 03:23:10;;;;;;;14.17;5.00;;;;;;;;;;4990760;28;20681;-69
2023/05/17 03:25:35;;;;;;;12.10;4.57;;;;;;;;;;4993759;28;20184;-69
2023/05/17 03:28:00;;;;;;;10.93;5.50;;;;;;;;;;4993279;28;20203;-69
2023/05/17 03:30:25;;;;;;;13.10;4.93;;;;;;;;;;4995819;28;20210;-69
2023/05/17 03:32:51;;;;;;;11.33;4.00;;;;;;;;;;4992980;28;20255;-69
2023/05/17 03:35:16;;;;;;;10.60;4.23;;;;;;;;;;4990160;28;20184;-69
2023/05/17 03:37:42;;;;;;;11.60;4.33;;;;;;;;;;4991249;28;20262;-69
2023/05/17 03:40:07;;;;;;;13.73;4.37;;;;;;;;;;4987797;28;20200;-69
2023/05/17 03:42:32;;;;;;;13.43;4.90;;;;;;;;;;4986174;28;20192;-69
2023/05/17 03:44:57;;;;;;;11.47;4.77;;;;;;;;;;4991700;28;20587;-69
2023/05/17 03:47:23;;;;;;;8.40;3.87;;;;;;;;;;4998548;28;20568;-69
2023/05/17 03:49:48;;;;;;;12.13;5.47;;;;;;;;;;4987956;28;20191;-69
2023/05/17 03:52:13;;;;;;;12.97;5.17;;;;;;;;;;4988151;28;20183;-69
2023/05/17 03:54:39;;;;;;;9.00;4.50;;;;;;;;;;4999002;28;20211;-69
2023/05/17 03:57:04;;;;;;;8.67;4.80;;;;;;;;;;4993999;28;20646;-69
2023/05/17 03:59:29;;;;;;;8.80;4.50;;;;;;;;;;4993098;28;20186;-69
2023/05/17 04:01:55;;;;;;;12.43;4.73;;;;;;;;;;4991955;28;20258;-69
2023/05/17 04:04:20;;;;;;;17.50;4.13;;;;;;;;;;5009845;28;20196;-69
2023/05/17 04:06:45;;;;;;;11.83;4.30;;;;;;;;;;4999039;28;20183;-69
2023/05/17 04:09:12;;;;;;;11.20;4.10;;;;;;;;;;4989808;28;20227;-68
2023/05/17 04:11:39;;;;;;;9.17;3.43;;;;;;;;;;4987223;28;20263;-68
2023/05/17 04:14:04;;;;;;;12.17;4.30;;;;;;;;;;4992638;28;20666;-68
2023/05/17 04:16:29;;;;;;;11.60;3.97;;;;;;;;;;4993571;28;20203;-69
2023/05/17 04:18:55;;;;;;;10.80;4.27;;;;;;;;;;4992490;28;20187;-69
2023/05/17 04:21:20;;;;;;;8.67;3.73;;;;;;;;;;5000413;28;20578;-69
2023/05/17 04:23:45;;;;;;;17.63;4.83;;;;;;;;;;4993392;28;20203;-68
2023/05/17 04:26:10;;;;;;;14.03;4.33;;;;;;;;;;4999123;28;20259;-69
2023/05/17 04:28:35;;;;;;;11.40;3.53;;;;;;;;;;4992739;28;20207;-68
2023/05/17 04:31:01;;;;;;;7.90;4.43;;;;;;;;;;4994295;28;20214;-68
2023/05/17 04:33:26;;;;;;;10.90;4.30;;;;;;;;;;4993343;28;20341;-68
2023/05/17 04:35:53;;;;;;;12.43;3.73;;;;;;;;;;4989482;28;20218;-69
2023/05/17 04:38:18;;;;;;;11.77;3.43;;;;;;;;;;4985405;28;20175;-69
2023/05/17 04:40:43;;;;;;;10.77;3.67;;;;;;;;;;4986521;28;20182;-68
2023/05/17 04:43:09;;;;;;;10.40;2.67;;;;;;;;;;4989652;28;20203;-69
2023/05/17 04:45:34;;;;;;;13.47;3.43;;;;;;;;;;4983772;28;21179;-68
2023/05/17 04:47:59;;;;;;;17.90;3.60;;;;;;;;;;4981099;28;20204;-69
2023/05/17 04:50:24;;;;;;;9.80;2.40;;;;;;;;;;4985072;28;20543;-69
2023/05/17 04:52:50;;;;;;;9.70;2.93;;;;;;;;;;4975014;28;20196;-69
2023/05/17 04:55:15;;;;;;;7.83;2.57;;;;;;;;;;4986455;28;20266;-68
2023/05/17 04:57:40;;;;;;;11.40;3.17;;;;;;;;;;4982669;28;20190;-69
2023/05/17 05:00:06;;;;;;;8.37;2.40;;;;;;;;;;4984757;28;20214;-69
2023/05/17 05:02:34;;;;;;;9.90;2.70;;;;;;;;;;4982282;28;20650;-69
2023/05/17 05:05:00;;;;;;;8.90;3.00;;;;;;;;;;4988102;28;20184;-69
2023/05/17 05:07:25;;;;;;;11.80;3.30;;;;;;;;;;4985086;28;20578;-69
2023/05/17 05:09:50;;;;;;;7.70;2.63;;;;;;;;;;4993057;28;20209;-68
2023/05/17 05:12:15;;;;;;;8.30;2.63;;;;;;;;;;4992812;28;20184;-69
2023/05/17 05:14:41;;;;;;;6.17;2.90;;;;;;;;;;4981050;28;20215;-68
2023/05/17 05:17:06;;;;;;;6.13;2.33;;;;;;;;;;4992137;28;20187;-68
2023/05/17 05:19:31;;;;;;;7.23;3.17;;;;;;;;;;4991137;28;20919;-68
2023/05/17 05:21:56;;;;;;;20.73;2.97;;;;;;;;;;4990691;28;20187;-69
2023/05/17 05:24:21;;;;;;;11.83;3.13;;;;;;;;;;4990723;28;20196;-69
2023/05/17 05:26:47;;;;;;;10.23;2.83;;;;;;;;;;4984798;28;20187;-69
2023/05/17 05:29:12;;;;;;;15.07;3.07;;;;;;;;;;4985424;28;20510;-68
2023/05/17 05:31:37;;;;;;;14.47;2.50;;;;;;;;;;4982309;28;20186;-69
2023/05/17 05:34:02;;;;;;;11.03;2.40;;;;;;;;;;4988540;28;20677;-68
2023/05/17 05:36:28;;;;;;;8.70;2.10;;;;;;;;;;4989333;28;21041;-68
2023/05/17 05:38:53;;;;;;;13.53;2.60;;;;;;;;;;4993739;28;20214;-69
2023/05/17 05:41:18;;;;;;;8.37;3.03;;;;;;;;;;4988273;28;20262;-68
2023/05/17 05:43:44;;;;;;;13.27;2.93;;;;;;;;;;4984505;28;20238;-69
2023/05/17 05:46:09;;;;;;;10.63;3.87;;;;;;;;;;4983120;28;20180;-69
2023/05/17 05:48:38;;;;;;;13.45;2.90;;;;;;;;;;4984947;28;20294;-69
2023/05/17 05:51:03;;;;;;;9.02;2.53;;;;;;;;;;4983443;28;20600;-69
2023/05/17 05:53:28;;;;;;;9.10;2.30;;;;;;;;;;4980392;28;20199;-69
2023/05/17 05:55:53;;;;;;;9.20;2.03;;;;;;;;;;4979919;28;20191;-69
2023/05/17 05:58:18;;;;;;;11.82;3.10;;;;;;;;;;4975509;28;20278;-68
2023/05/17 06:00:44;;;;;;;7.10;2.15;;;;;;;;;;4982867;28;20637;-69
2023/05/17 06:03:09;;;;;;;8.52;2.90;;;;;;;;;;4980904;28;20250;-68
2023/05/17 06:05:34;;;;;;;5.47;1.88;;;;;;;;;;4986993;28;20649;-69
2023/05/17 06:07:59;;;;;;;10.43;2.85;;;;;;;;;;4993116;28;20212;-68
2023/05/17 06:10:24;;;;;;;5.32;1.92;;;;;;;;;;4989653;28;20176;-68
2023/05/17 06:12:50;;;;;;;10.95;2.38;;;;;;;;;;4984856;28;20209;-67
2023/05/17 06:15:15;;;;;;;8.70;2.30;;;;;;;;;;5001209;22;20340;-71
2023/05/17 06:17:40;;;;;;;14.52;2.30;;;;;;;;;;4999705;28;20206;-71
2023/05/17 06:20:06;;;;;;;8.15;1.83;;;;;;;;;;4988323;28;20230;-71
2023/05/17 06:22:31;;;;;;;17.33;2.47;;;;;;;;;;4984504;28;20187;-71
2023/05/17 06:24:56;;;;;;;7.50;1.88;;;;;;;;;;4982449;28;20258;-70
2023/05/17 06:27:21;;;;;;;3.55;1.83;;;;;;;;;;4981728;28;20673;-71
2023/05/17 06:29:47;;;;;;;12.90;2.45;;;;;;;;;;4982711;28;20559;-71
2023/05/17 06:32:12;;;;;;;10.10;2.05;;;;;;;;;;4983070;28;20669;-71
2023/05/17 06:34:38;;;;;;;12.95;2.42;;;;;;;;;;4983802;28;20199;-71
2023/05/17 06:37:04;;;;;;;6.95;1.60;;;;;;;;;;4981759;28;20175;-71
2023/05/17 06:39:29;;;;;;;7.82;1.67;;;;;;;;;;4983134;28;20701;-71
2023/05/17 06:41:54;;;;;;;11.15;2.50;;;;;;;;;;4989006;28;20230;-72
2023/05/17 06:44:20;;;;;;;6.13;1.50;;;;;;;;;;4988973;28;20293;-71
2023/05/17 06:46:45;;;;;;;13.05;2.30;;;;;;;;;;4982260;28;20206;-71
2023/05/17 06:49:10;;;;;;;5.32;1.65;;;;;;;;;;4982475;28;20208;-70
2023/05/17 06:51:35;;;;;;;8.77;2.42;;;;;;;;;;4983419;28;20202;-70
2023/05/17 06:54:00;;;;;;;8.50;2.20;;;;;;;;;;4983137;28;20208;-70
2023/05/17 06:56:26;;;;;;;6.72;1.92;;;;;;;;;;4990224;28;20175;-70
2023/05/17 06:58:51;;;;;;;10.32;2.58;;;;;;;;;;4991770;28;20194;-71
2023/05/17 07:01:16;;;;;;;10.05;2.55;;;;;;;;;;4987360;28;20221;-72
2023/05/17 07:03:42;;;;;;;10.00;1.65;;;;;;;;;;4985299;28;20855;-71
2023/05/17 07:06:07;;;;;;;12.25;2.03;;;;;;;;;;4988754;28;20181;-71
2023/05/17 07:08:32;;;;;;;8.32;2.08;;;;;;;;;;4987116;28;20214;-71
2023/05/17 07:10:57;;;;;;;11.77;1.80;;;;;;;;;;4986536;28;20191;-71
2023/05/17 07:13:22;;;;;;;11.05;2.70;;;;;;;;;;4977983;28;20223;-72
2023/05/17 07:15:48;;;;;;;7.75;1.95;;;;;;;;;;4970890;28;20187;-71
2023/05/17 07:18:13;;;;;;;5.75;2.22;;;;;;;;;;4975018;28;20191;-72
2023/05/17 07:20:38;;;;;;;5.90;2.03;;;;;;;;;;4991099;28;20853;-72
2023/05/17 07:23:03;;;;;;;10.18;1.50;;;;;;;;;;4977241;28;20653;-72
2023/05/17 07:25:30;;;;;;;8.20;1.92;;;;;;;;;;4978877;28;20191;-72
2023/05/17 07:27:55;;;;;;;11.43;1.70;;;;;;;;;;4989386;28;20198;-72
2023/05/17 07:30:21;;;;;;;5.70;1.55;;;;;;;;;;4985558;28;21731;-72
2023/05/17 07:32:46;;;;;;;9.15;1.63;;;;;;;;;;4973761;28;20186;-72
2023/05/17 07:35:11;;;;;;;15.70;2.00;;;;;;;;;;4974653;28;20187;-72
2023/05/17 07:37:36;;;;;;;9.43;2.03;;;;;;;;;;4971289;28;20291;-72
2023/05/17 07:40:04;;;;;;;12.68;1.70;;;;;;;;;;4974600;28;20191;-71
2023/05/17 07:42:29;;;;;;;5.57;1.33;;;;;;;;;;4973507;28;20672;-71
2023/05/17 07:44:54;;;;;;;8.15;1.80;;;;;;;;;;4973539;28;20290;-71
2023/05/17 07:47:19;;;;;;;8.50;1.83;;;;;;;;;;4975327;28;20219;-71
2023/05/17 07:49:45;;;;;;;10.57;2.08;;;;;;;;;;4976684;28;20189;-71
2023/05/17 07:52:10;;;;;;;6.93;1.48;;;;;;;;;;4974245;28;20190;-72
2023/05/17 07:54:35;;;;;;;6.47;1.45;;;;;;;;;;4974599;28;20200;-72
2023/05/17 07:57:00;;;;;;;6.60;1.40;;;;;;;;;;4973817;28;20606;-71
2023/05/17 07:59:25;;;;;;;5.90;1.50;;;;;;;;;;4972897;28;20222;-71
2023/05/17 08:01:51;;;;;;;12.88;1.90;;;;;;;;;;4971548;28;20274;-72
2023/05/17 08:04:16;;;;;;;4.30;1.95;;;;;;;;;;4987219;28;20211;-71
2023/05/17 08:06:42;;;;;;;3.20;0.98;;;;;;;;;;4974294;28;20195;-72
2023/05/17 08:09:07;;;;;;;6.35;1.67;;;;;;;;;;4984671;28;20696;-71
2023/05/17 08:11:33;;;;;;;5.57;1.40;;;;;;;;;;4976030;28;20286;-71
2023/05/17 08:13:59;;;;;;;6.55;1.30;;;;;;;;;;4972653;28;20220;-72
2023/05/17 08:16:25;;;;;;;5.75;1.75;;;;;;;;;;4971336;28;20199;-71
2023/05/17 08:18:50;;;;;;;2.42;1.10;;;;;;;;;;4970677;28;20192;-71
2023/05/17 08:21:15;;;;;;;4.75;1.25;;;;;;;;;;4971152;28;20187;-70
2023/05/17 08:23:41;;;;;;;6.20;1.10;;;;;;;;;;4968856;28;20214;-70
2023/05/17 08:26:06;;;;;;;4.53;1.13;;;;;;;;;;4969790;28;20213;-71
2023/05/17 08:28:32;;;;;;;5.35;1.52;;;;;;;;;;4972209;28;20251;-71
2023/05/17 08:30:57;;;;;;;4.07;1.13;;;;;;;;;;4978525;28;20193;-71
2023/05/17 08:33:24;;;;;;;3.83;1.70;;;;;;;;;;4975965;28;20227;-71
2023/05/17 08:35:51;;;;;;;2.67;1.15;;;;;;;;;;4971842;28;20223;-70
2023/05/17 08:38:16;;;;;;;3.08;1.20;;;;;;;;;;4969029;28;20175;-72
2023/05/17 08:40:42;;;;;;;2.83;0.95;;;;;;;;;;4985229;28;20566;-71
2023/05/17 08:43:08;;;;;;;3.65;0.98;;;;;;;;;;4972477;28;20185;-70
2023/05/17 08:45:35;;;;;;;7.20;1.13;;;;;;;;;;4969390;28;20684;-71
2023/05/17 08:48:01;;;;;;;5.72;1.45;;;;;;;;;;4976645;28;20199;-71
2023/05/17 08:50:28;;;;;;;3.83;1.25;;;;;;;;;;4971153;28;21135;-71
2023/05/17 08:52:55;;;;;;;3.88;1.08;;;;;;;;;;4972366;28;20184;-71
2023/05/17 08:55:20;;;;;;;8.45;1.52;;;;;;;;;;4970808;28;20175;-71
2023/05/17 08:57:45;;;;;;;4.85;1.20;;;;;;;;;;4973044;28;20184;-71
2023/05/17 09:00:14;;;;;;;3.85;1.33;;;;;;;;;;4983879;28;20191;-70
2023/05/17 09:02:40;;;;;;;4.72;1.25;;;;;;;;;;4974780;28;20219;-70
2023/05/17 09:05:06;;;;;;;4.55;1.08;;;;;;;;;;4970344;28;20235;-70
2023/05/17 09:07:31;;;;;;;4.43;1.40;;;;;;;;;;4972567;28;20200;-70
2023/05/17 09:09:57;;;;;;;1.83;1.13;;;;;;;;;;4971826;28;20180;-71
2023/05/17 09:12:22;;;;;;;3.83;1.38;;;;;;;;;;4971315;28;20184;-71
2023/05/17 09:14:48;;;;;;;2.35;0.73;;;;;;;;;;4969445;28;20207;-71
2023/05/17 09:17:15;;;;;;;4.35;1.73;;;;;;;;;;4971521;28;20198;-71
2023/05/17 09:19:44;;;;;;;4.25;1.23;;;;;;;;;;4982257;28;20187;-71
2023/05/17 09:22:11;;;;;;;3.50;1.23;;;;;;;;;;4992952;28;20380;-71
2023/05/17 09:24:38;;;;;;;4.32;0.93;;;;;;;;;;4972187;28;20210;-70
2023/05/17 09:27:04;;;;;;;4.35;1.00;;;;;;;;;;4971344;28;22157;-70
2023/05/17 09:29:31;;;;;;;5.20;1.30;;;;;;;;;;4971500;28;20183;-70
2023/05/17 09:31:56;;;;;;;8.20;1.40;;;;;;;;;;4972099;28;20184;-71
2023/05/17 09:34:23;;;;;;;5.35;1.00;;;;;;;;;;4973430;28;20211;-71
2023/05/17 09:36:48;;;;;;;1.70;1.00;;;;;;;;;;4973777;28;20180;-71
2023/05/17 09:39:14;;;;;;;3.25;1.15;;;;;;;;;;4975786;28;20574;-71
2023/05/17 09:41:40;;;;;;;3.53;0.85;;;;;;;;;;4985135;28;20255;-72
2023/05/17 09:44:09;;;;;;;3.50;1.17;;;;;;;;;;4972471;28;20277;-71
2023/05/17 09:46:39;;;;;;;4.88;1.10;;;;;;;;;;4973068;28;20845;-71
2023/05/17 09:49:05;;;;;;;3.60;1.40;;;;;;;;;;4985446;28;20208;-71
2023/05/17 09:51:34;;;;;;;4.28;1.17;;;;;;;;;;4988674;28;20662;-71
2023/05/17 09:54:00;;;;;;;3.55;0.93;;;;;;;;;;4976443;28;20263;-71
2023/05/17 09:56:28;;;;;;;4.57;0.90;;;;;;;;;;4971110;28;20657;-73
2023/05/17 09:58:54;;;;;;;4.45;1.00;;;;;;;;;;4966585;28;20196;-70
2023/05/17 10:01:20;;;;;;;5.13;1.10;;;;;;;;;;4966019;28;20523;-71
2023/05/17 10:03:46;;;;;;;3.40;1.10;;;;;;;;;;4981868;28;20290;-71
2023/05/17 10:06:11;;;;;;;2.75;1.27;;;;;;;;;;4970074;28;20874;-71
2023/05/17 10:08:37;;;;;;;2.58;0.80;;;;;;;;;;4971171;28;20234;-71
2023/05/17 10:11:06;;;;;;;5.85;1.10;;;;;;;;;;4971670;28;20202;-71
2023/05/17 10:13:33;;;;;;;3.25;1.10;;;;;;;;;;4985252;28;20214;-71
2023/05/17 10:15:59;;;;;;;3.47;0.77;;;;;;;;;;4970860;28;20180;-70
2023/05/17 10:18:25;;;;;;;3.28;0.90;;;;;;;;;;4970012;28;20187;-71
2023/05/17 10:20:51;;;;;;;5.00;1.17;;;;;;;;;;4969213;28;20183;-71
2023/05/17 10:23:17;;;;;;;3.78;1.13;;;;;;;;;;4970299;28;22421;-70
2023/05/17 10:25:42;;;;;;;6.53;1.17;;;;;;;;;;4971603;28;21812;-70
2023/05/17 10:28:09;;;;;;;3.08;1.15;;;;;;;;;;4967638;28;20781;-70
2023/05/17 10:30:34;;;;;;;3.88;1.27;;;;;;;;;;4972448;28;20184;-71
2023/05/17 10:33:00;;;;;;;5.35;1.50;;;;;;;;;;4968086;28;20787;-71
2023/05/17 10:35:26;;;;;;;9.02;1.67;;;;;;;;;;4967880;28;20227;-71
2023/05/17 10:37:51;;;;;;;4.53;1.45;;;;;;;;;;4969481;28;20308;-71
2023/05/17 10:40:18;;;;;;;4.45;1.17;;;;;;;;;;4965473;28;21154;-71
2023/05/17 10:42:46;;;;;;;2.78;0.90;;;;;;;;;;4969152;28;20567;-71
2023/05/17 10:45:12;;;;;;;2.65;1.00;;;;;;;;;;4970308;28;20298;-71
2023/05/17 10:47:41;;;;;;;4.75;1.30;;;;;;;;;;4972017;28;20206;-71
2023/05/17 10:50:10;;;;;;;5.43;1.33;;;;;;;;;;4970217;28;20179;-72
2023/05/17 10:52:37;;;;;;;5.32;1.05;;;;;;;;;;4972658;28;20190;-71
2023/05/17 10:55:02;;;;;;;6.35;1.67;;;;;;;;;;4973575;28;20338;-71
2023/05/17 10:57:35;;;;;;;5.22;1.50;;;;;;;;;;4971074;28;20195;-71
2023/05/17 11:00:04;;;;;;;3.03;0.70;;;;;;;;;;4970854;28;20176;-71
2023/05/17 11:02:30;;;;;;;5.07;1.08;;;;;;;;;;4985481;28;20849;-71
2023/05/17 11:04:56;;;;;;;1.27;0.80;;;;;;;;;;4982390;28;20207;-71
2023/05/17 11:07:30;;;;;;;4.95;1.20;;;;;;;;;;4969117;28;20203;-71
2023/05/17 11:09:59;;;;;;;5.80;1.35;;;;;;;;;;4970413;28;20178;-71
2023/05/17 11:12:31;;;;;;;4.30;1.33;;;;;;;;;;4968503;28;20662;-71
2023/05/17 11:14:56;;;;;;;6.82;1.25;;;;;;;;;;4971181;28;20218;-72
2023/05/17 11:17:33;;;;;;;4.43;1.23;;;;;;;;;;4968835;28;20191;-71
2023/05/17 11:20:13;;;;;;;5.03;1.65;;;;;;;;;;4969872;28;20281;-71
2023/05/17 11:22:58;;;;;;;5.55;1.40;;;;;;;;;;4970490;28;20195;-72
2023/05/17 11:25:26;;;;;;;8.10;1.40;;;;;;;;;;4984122;28;20210;-71
2023/05/17 11:27:51;;;;;;;4.00;1.00;;;;;;;;;;4969459;28;20257;-72
2023/05/17 11:30:25;;;;;;;6.88;1.50;;;;;;;;;;4970163;28;20927;-71
2023/05/17 11:33:00;;;;;;;4.47;1.15;;;;;;;;;;4969557;28;20176;-72
2023/05/17 11:35:32;;;;;;;6.90;1.20;;;;;;;;;;4984092;28;20183;-72
2023/05/17 11:38:17;;;;;;;5.50;1.13;;;;;;;;;;4967928;28;20187;-72
2023/05/17 11:40:43;;;;;;;4.10;1.20;;;;;;;;;;4970042;28;20676;-71
2023/05/17 11:43:19;;;;;;;7.43;1.70;;;;;;;;;;4970281;28;20692;-72
2023/05/17 11:45:56;;;;;;;4.45;1.20;;;;;;;;;;4972534;28;20191;-72
2023/05/17 11:48:21;;;;;;;3.50;1.10;;;;;;;;;;4974650;28;20203;-72
2023/05/17 11:50:47;;;;;;;2.20;0.90;;;;;;;;;;4978334;28;20215;-72
2023/05/17 11:53:13;;;;;;;3.05;1.38;;;;;;;;;;4977533;28;20709;-72
2023/05/17 11:55:38;;;;;;;5.45;1.20;;;;;;;;;;4983802;28;20192;-71
2023/05/17 11:58:05;;;;;;;3.55;1.30;;;;;;;;;;4973118;28;20239;-72
2023/05/17 12:00:30;;;;;;;6.38;1.90;;;;;;;;;;4975529;28;20192;-72
2023/05/17 12:02:56;;;;;;;4.30;1.73;;;;;;;;;;4985883;28;20194;-71
2023/05/17 12:05:21;;;;;;;5.22;1.30;;;;;;;;;;4973240;28;20246;-71
2023/05/17 12:07:49;;;;;;;4.65;1.30;;;;;;;;;;4972067;28;20204;-71
2023/05/17 12:10:14;;;;;;;6.22;1.17;;;;;;;;;;4984925;28;20235;-72
2023/05/17 12:12:40;;;;;;;8.73;1.50;;;;;;;;;;4973579;28;20263;-72
2023/05/17 12:15:06;;;;;;;4.65;1.52;;;;;;;;;;4999626;22;20239;-67
2023/05/17 12:17:34;;;;;;;12.55;1.50;;;;;;;;;;4989373;28;20183;-67
2023/05/17 12:20:06;;;;;;;3.55;1.10;;;;;;;;;;4991506;28;20210;-68
2023/05/17 12:22:32;;;;;;;5.55;1.50;;;;;;;;;;4993770;28;20187;-67
2023/05/17 12:24:57;;;;;;;6.53;1.48;;;;;;;;;;4975302;28;20215;-68
2023/05/17 12:27:26;;;;;;;4.70;1.23;;;;;;;;;;4970908;28;20872;-69
2023/05/17 12:29:51;;;;;;;5.80;1.10;;;;;;;;;;4970363;28;20554;-67
2023/05/17 12:32:16;;;;;;;8.35;1.65;;;;;;;;;;4971486;28;20211;-68
2023/05/17 12:34:42;;;;;;;6.63;1.55;;;;;;;;;;4969821;28;20224;-68
2023/05/17 12:37:09;;;;;;;6.50;1.38;;;;;;;;;;4970358;28;20176;-68
2023/05/17 12:39:34;;;;;;;3.22;1.15;;;;;;;;;;4968372;28;20214;-69
2023/05/17 12:42:00;;;;;;;5.60;1.48;;;;;;;;;;4968849;28;20260;-68
2023/05/17 12:44:25;;;;;;;6.55;1.15;;;;;;;;;;4970117;28;20588;-67
2023/05/17 12:46:52;;;;;;;5.18;1.35;;;;;;;;;;4973006;28;20183;-67
2023/05/17 12:49:19;;;;;;;5.82;1.83;;;;;;;;;;4971251;28;20262;-67
2023/05/17 12:51:45;;;;;;;6.13;1.27;;;;;;;;;;4979650;28;20184;-67
2023/05/17 12:54:17;;;;;;;5.75;1.15;;;;;;;;;;4972063;28;20697;-67
2023/05/17 12:56:43;;;;;;;6.82;1.20;;;;;;;;;;4970498;28;21818;-67
2023/05/17 12:59:19;;;;;;;6.18;1.60;;;;;;;;;;4967628;28;21323;-67
2023/05/17 13:01:48;;;;;;;4.47;1.20;;;;;;;;;;4969903;28;20593;-67
2023/05/17 13:04:14;;;;;;;7.25;2.20;;;;;;;;;;4968678;28;20312;-67
2023/05/17 13:06:43;;;;;;;8.98;1.85;;;;;;;;;;4970698;28;20614;-67
2023/05/17 13:09:09;;;;;;;5.55;1.25;;;;;;;;;;4984209;28;20771;-67
2023/05/17 13:11:39;;;;;;;5.43;1.80;;;;;;;;;;4968375;28;20183;-68
2023/05/17 13:14:04;;;;;;;8.20;1.30;;;;;;;;;;4972297;28;20594;-68
2023/05/17 13:16:30;;;;;;;6.82;1.40;;;;;;;;;;4970702;28;20195;-68
2023/05/17 13:18:55;;;;;;;3.63;1.55;;;;;;;;;;4968774;28;20184;-67
2023/05/17 13:21:20;;;;;;;5.43;1.38;;;;;;;;;;4968929;28;20263;-68
2023/05/17 13:23:46;;;;;;;3.47;1.33;;;;;;;;;;4967166;28;20211;-67
2023/05/17 13:26:11;;;;;;;6.18;2.63;;;;;;;;;;4972546;28;20188;-68
2023/05/17 13:28:37;;;;;;;3.53;1.23;;;;;;;;;;4970268;28;20568;-68
2023/05/17 13:31:02;;;;;;;3.22;1.52;;;;;;;;;;4971166;28;20187;-68
2023/05/17 13:33:27;;;;;;;7.67;1.87;;;;;;;;;;4969404;28;20190;-67
2023/05/17 13:35:52;;;;;;;3.77;1.33;;;;;;;;;;4968335;28;20437;-66
2023/05/17 13:38:18;;;;;;;6.27;1.30;;;;;;;;;;4967988;28;20977;-66
2023/05/17 13:40:43;;;;;;;5.68;1.63;;;;;;;;;;4972207;28;20426;-65
2023/05/17 13:43:08;;;;;;;4.20;1.45;;;;;;;;;;4970016;28;20183;-68
2023/05/17 13:45:33;;;;;;;6.40;1.63;;;;;;;;;;4970336;28;20290;-67
2023/05/17 13:47:59;;;;;;;4.15;1.60;;;;;;;;;;4976334;28;20331;-66
2023/05/17 13:50:24;;;;;;;4.45;1.60;;;;;;;;;;4967396;28;21827;-67
2023/05/17 13:52:49;;;;;;;6.50;1.30;;;;;;;;;;4969418;28;20192;-68
2023/05/17 13:55:15;;;;;;;3.67;1.40;;;;;;;;;;4988313;28;20250;-68
2023/05/17 13:57:41;;;;;;;6.55;1.60;;;;;;;;;;4981506;28;20548;-67
2023/05/17 14:00:06;;;;;;;3.65;1.55;;;;;;;;;;4966906;28;20188;-66
2023/05/17 14:02:31;;;;;;;10.18;1.80;;;;;;;;;;4968161;28;20278;-67
2023/05/17 14:04:56;;;;;;;6.77;1.27;;;;;;;;;;4969358;28;20841;-68
2023/05/17 14:07:22;;;;;;;5.27;1.60;;;;;;;;;;4968036;28;20484;-67
2023/05/17 14:09:47;;;;;;;5.82;1.70;;;;;;;;;;4967542;28;20429;-67
2023/05/17 14:12:12;;;;;;;7.40;1.80;;;;;;;;;;4967239;28;20687;-68
2023/05/17 14:14:37;;;;;;;8.17;1.83;;;;;;;;;;4969698;28;20346;-68
2023/05/17 14:17:03;;;;;;;2.10;1.10;;;;;;;;;;4968232;28;20425;-67
2023/05/17 14:19:28;;;;;;;3.50;1.40;;;;;;;;;;4969283;28;20923;-67
2023/05/17 14:21:53;;;;;;;3.03;1.15;;;;;;;;;;4965460;28;20207;-67
2023/05/17 14:24:18;;;;;;;5.97;1.87;;;;;;;;;;4971567;28;20250;-68
2023/05/17 14:26:44;;;;;;;4.53;1.07;;;;;;;;;;4969427;28;20436;-68
2023/05/17 14:29:09;;;;;;;5.75;1.52;;;;;;;;;;4970564;28;21329;-67
2023/05/17 14:31:34;;;;;;;2.50;1.30;;;;;;;;;;4972276;28;20176;-67